GL-0003 weather

North Grip Ice Landingstrip
Greenland

Public forecast

Using degrees Celsius for public forecast. Weather courtesy of forecast.io.

METAR (pilot weather report)

Closest report is Thule Air Base, 394.0 nm (729.7 km) WNW. Retrieved 2019/04/21 07:36 UTC (8 minutes ago):

BGTL 210736Z AUTO 11006KT 8000 BR BKN019 M20/M21 A2963 RMK AO2 BKN V SCT SLP025 TSNO $

TAF (pilot weather forecast)

Forecast is more than 12 hours old.

Closest forecast is Thule Air Base, 394.0 nm (729.7 km) WNW. Retrieved 2019/04/20 17:21 UTC (14 hours ago):

TAF BGTL 201700Z 2017/2123 13009KT 9999 FEW050 SCT150 QNH2960INS WND 070V170 BECMG 2022/2023 14009KT 9000 -SHSN BKN020 OVC035 610205 QNH2955INS WND 070V170 BECMG 2119/2120 10012G18KT 9999 NSW BKN030 620304 QNH2948INS TXM16/2020Z TNM27/2103Z LAST NO AMDS AFT 2018 NEXT 2209